AirNav   Bose ProFlight Aviation Headset
 
 325 users online  

SC90 Do-Little Field Airport
St Matthews, South Carolina, USA

GOING TO ST MATTHEWS?


FAA INFORMATION EFFECTIVE 08 NOVEMBER 2018

Location

FAA Identifier: SC90
Lat/Long: 33-40-34.0000N / 080-56-54.0000W
33-40.566667N / 080-56.900000W
33.6761111 / -80.9483333
(estimated)
Elevation: 369 ft. / 112 m (estimated)
Variation: 05W (1990)
From city: 9 miles W of ST. MATTHEWS, SC
Time zone: UTC -5 (UTC -4 during Daylight Saving Time)
Zip code: 29135

Airport Operations

Airport use: Private use. Permission required prior to landing
Activation date: 06/1993
Control tower: no
ARTCC: JACKSONVILLE CENTER
FSS: ANDERSON FLIGHT SERVICE STATION
Attendance: UNATNDD
Wind indicator: yes
Segmented circle: no

Airport Communications

WX ASOS at OGB (14 nm S): 118.525 (803-536-3901)
WX ASOS at CUB (18 nm N): 118.675 (803-929-0665)
WX ASOS at CAE (18 nm NW): PHONE 803-822-4168

Nearby radio navigation aids

VOR radial/distance  VOR name  Freq  Var
CAEr156/12.1COLUMBIA VORTAC114.7002W
MMTr214/16.6MC ENTIRE VORTAC113.2008W
VANr302/27.7VANCE VORTAC110.4006W

 
NDB name  Hdg/Dist  Freq  Var  ID
SUMTER244/34.925207WSMS ... -- ...
AIKEN094/36.434706WAIK .- .. -.-
MANNING284/37.538106WMNI -- -. ..

Airport Services

Runway Information

Runway 14/32

Dimensions: 3200 x 100 ft. / 975 x 30 m
Surface: turf
RUNWAY 14  RUNWAY 32
Traffic pattern: leftright

Airport Ownership and Management from official FAA records

Ownership: Privately-owned
Owner: DO-LITTLE FIELD INC
160 DO LITTLE LANE
ST MATTHEWS, SC 29135
Phone 803-874-4281
Manager: BILL MITCHELL
35 DOOLITTLE LN
ST MATTHEWS, SC 29135
Phone 803-874-1310

Airport Operational Statistics

Aircraft based on the field: 9
Single engine airplanes: 9
    

Instrument Procedures

There are no published instrument procedures at SC90.

Some nearby airports with instrument procedures:

KXNO - North Air Force Auxiliary Field (8 nm SW)
KOGB - Orangeburg Municipal Airport (14 nm S)
KMMT - Mc Entire Joint National Guard Base (16 nm NE)
6J0 - Lexington County Airport (16 nm NW)
KCUB - Jim Hamilton L B Owens Airport (18 nm N)
KCAE - Columbia Metropolitan Airport (18 nm NW)
 
Loc | Ops | Rwys | IFR | FBO | Links
Com | Nav | Svcs | Stats | Notes


 
Area around SC90 (Do-Little Field Airport)
 
Road maps at: MapQuest Bing Google
 
Aerial photo
WARNING: Photo may not be current or correct
Aerial photo of SC90 (Do-Little Field Airport)
Photo by Eddie Price
Photo taken 10-Nov-2012
looking west.

Do you have a better or more recent aerial photo of Do-Little Field Airport that you would like to share? If so, please send us your photo.

 
Sectional chart

 
Airport distance calculator
Flying to Do-Little Field Airport? Find the distance to fly.

From to SC90

Sunrise and sunset
Times for 21-Nov-2018
 Local
(UTC-5)
 Zulu
(UTC)
Morning civil twilight06:3611:36
Sunrise07:0212:02
Sunset17:1722:17
Evening civil twilight17:4422:44

Current date and time
Zulu (UTC)  21-Nov-2018 08:46:46
Local (UTC-5)  21-Nov-2018 03:46:46
 
METAR
KXNO 
8nm SW 
210756Z AUTO 01006KT 10SM CLR 05/05 A3020 RMK AO2 SLP229 T00540047 $
KOGB 
13nm S 
210753Z AUTO 03006KT 10SM CLR 07/03 A3019 RMK AO2 SLP221 T00720028
KMMT 
17nm NE 
210756Z AUTO 01004KT 10SM CLR 07/02 A3020 RMK AO2 SLP229 T00680017 $
KCAE 
18nm NW 
210756Z 00000KT 10SM CLR 06/03 A3020 RMK AO2 SLP227 T00560033
KCUB 
18nm N 
210753Z AUTO 00000KT 10SM CLR 06/03 A3022 RMK AO2 SLP231 T00560033
TAF
KOGB 
13nm S 
210522Z 2106/2206 01004KT P6SM SKC
KMMT 
17nm NE 
210800Z 2108/2214 01006KT 9999 SKC QNH3020INS TX15/2119Z TN03/2109Z
KCAE 
18nm NW 
210522Z 2106/2206 36004KT P6SM SKC= TAF KDNL 210522Z 2106/2206 36004KT P6SM SKC
KCUB 
18nm N 
210522Z 2106/2206 VRB04KT P6SM SKC
NOTAMs
Click for the latest NOTAMs
NOTAMs are issued by the DoD/FAA and will open in a separate window not controlled by AirNav.

 

 
 

Would you like to see your business listed on this page?

 If your business provides an interesting product or service to pilots, flight crews, aircraft, or users of the Do-Little Field Airport, you should consider listing it here.  To start the listing process, click on the button below
 
Add a business
 

Other Pages about Do-Little Field Airport

Update a link
 
Copyright © AirNav, LLC. All rights reserved. Privacy Policy  Contact